sensor_id;sensor_type;location;lat;lon;timestamp;temperature;humidity
21807;DHT22;11065;50.786;7.840;2023-07-13T00:02:18;22.20;36.40
21807;DHT22;11065;50.786;7.840;2023-07-13T00:04:46;22.20;36.50
21807;DHT22;11065;50.786;7.840;2023-07-13T00:07:14;22.10;36.40
21807;DHT22;11065;50.786;7.840;2023-07-13T00:09:42;22.10;36.50
21807;DHT22;11065;50.786;7.840;2023-07-13T00:12:23;22.00;36.50
21807;DHT22;11065;50.786;7.840;2023-07-13T00:14:53;22.00;36.80
21807;DHT22;11065;50.786;7.840;2023-07-13T00:17:22;21.90;36.60
21807;DHT22;11065;50.786;7.840;2023-07-13T00:19:50;21.90;36.70
21807;DHT22;11065;50.786;7.840;2023-07-13T00:22:18;21.80;36.70
21807;DHT22;11065;50.786;7.840;2023-07-13T00:24:47;21.80;36.80
21807;DHT22;11065;50.786;7.840;2023-07-13T00:27:15;21.70;36.80
21807;DHT22;11065;50.786;7.840;2023-07-13T00:29:46;21.70;37.40
21807;DHT22;11065;50.786;7.840;2023-07-13T00:32:14;21.60;36.90
21807;DHT22;11065;50.786;7.840;2023-07-13T00:34:43;21.60;37.00
21807;DHT22;11065;50.786;7.840;2023-07-13T00:37:11;21.50;37.10
21807;DHT22;11065;50.786;7.840;2023-07-13T00:39:39;21.40;37.10
21807;DHT22;11065;50.786;7.840;2023-07-13T00:42:07;21.40;37.20
21807;DHT22;11065;50.786;7.840;2023-07-13T00:44:35;21.40;37.30
21807;DHT22;11065;50.786;7.840;2023-07-13T00:47:03;21.30;37.40
21807;DHT22;11065;50.786;7.840;2023-07-13T00:49:32;21.30;37.60
21807;DHT22;11065;50.786;7.840;2023-07-13T00:52:05;21.20;37.60
21807;DHT22;11065;50.786;7.840;2023-07-13T00:54:38;21.20;37.80
21807;DHT22;11065;50.786;7.840;2023-07-13T00:57:09;21.10;37.80
21807;DHT22;11065;50.786;7.840;2023-07-13T00:59:40;21.10;37.90
21807;DHT22;11065;50.786;7.840;2023-07-13T01:02:10;21.00;38.00
21807;DHT22;11065;50.786;7.840;2023-07-13T01:04:38;21.00;38.20
21807;DHT22;11065;50.786;7.840;2023-07-13T01:07:08;20.90;38.30
21807;DHT22;11065;50.786;7.840;2023-07-13T01:09:36;20.80;38.40
21807;DHT22;11065;50.786;7.840;2023-07-13T01:12:05;20.80;38.50
21807;DHT22;11065;50.786;7.840;2023-07-13T01:14:33;20.70;38.60
21807;DHT22;11065;50.786;7.840;2023-07-13T01:17:01;20.60;38.80
21807;DHT22;11065;50.786;7.840;2023-07-13T01:19:35;20.50;38.80
21807;DHT22;11065;50.786;7.840;2023-07-13T01:22:07;20.50;39.10
21807;DHT22;11065;50.786;7.840;2023-07-13T01:24:39;20.40;39.10
21807;DHT22;11065;50.786;7.840;2023-07-13T01:27:08;20.30;39.10
21807;DHT22;11065;50.786;7.840;2023-07-13T01:29:40;20.30;39.20
21807;DHT22;11065;50.786;7.840;2023-07-13T01:32:10;20.20;39.30
21807;DHT22;11065;50.786;7.840;2023-07-13T01:34:39;20.10;39.30
21807;DHT22;11065;50.786;7.840;2023-07-13T01:37:11;20.00;39.50
21807;DHT22;11065;50.786;7.840;2023-07-13T01:39:40;20.00;39.60
21807;DHT22;11065;50.786;7.840;2023-07-13T01:42:08;20.00;39.60
21807;DHT22;11065;50.786;7.840;2023-07-13T01:44:36;19.90;39.70
21807;DHT22;11065;50.786;7.840;2023-07-13T01:47:05;19.80;39.80
21807;DHT22;11065;50.786;7.840;2023-07-13T01:49:33;19.70;39.90
21807;DHT22;11065;50.786;7.840;2023-07-13T01:52:01;19.70;40.00
21807;DHT22;11065;50.786;7.840;2023-07-13T01:54:32;19.60;40.10
21807;DHT22;11065;50.786;7.840;2023-07-13T01:57:01;19.60;40.40
21807;DHT22;11065;50.786;7.840;2023-07-13T01:59:30;19.50;40.30
21807;DHT22;11065;50.786;7.840;2023-07-13T02:01:59;19.40;40.30
21807;DHT22;11065;50.786;7.840;2023-07-13T02:04:28;19.40;40.40
21807;DHT22;11065;50.786;7.840;2023-07-13T02:06:56;19.30;41.00
21807;DHT22;11065;50.786;7.840;2023-07-13T02:09:24;19.30;40.70
21807;DHT22;11065;50.786;7.840;2023-07-13T02:11:53;19.20;40.70
21807;DHT22;11065;50.786;7.840;2023-07-13T02:14:21;19.20;40.90
21807;DHT22;11065;50.786;7.840;2023-07-13T02:16:49;19.10;41.30
21807;DHT22;11065;50.786;7.840;2023-07-13T02:19:17;19.00;41.00
21807;DHT22;11065;50.786;7.840;2023-07-13T02:21:45;19.00;41.10
21807;DHT22;11065;50.786;7.840;2023-07-13T02:24:13;19.00;41.20
21807;DHT22;11065;50.786;7.840;2023-07-13T02:26:44;18.90;41.20
21807;DHT22;11065;50.786;7.840;2023-07-13T02:29:15;18.80;41.30
21807;DHT22;11065;50.786;7.840;2023-07-13T02:31:45;18.80;41.40
21807;DHT22;11065;50.786;7.840;2023-07-13T02:34:13;18.70;41.40
21807;DHT22;11065;50.786;7.840;2023-07-13T02:36:40;18.70;41.60
21807;DHT22;11065;50.786;7.840;2023-07-13T02:39:09;18.60;41.60
21807;DHT22;11065;50.786;7.840;2023-07-13T02:41:39;18.60;41.70
21807;DHT22;11065;50.786;7.840;2023-07-13T02:44:07;18.50;41.70
21807;DHT22;11065;50.786;7.840;2023-07-13T02:46:37;18.50;41.90
21807;DHT22;11065;50.786;7.840;2023-07-13T02:49:05;18.40;42.50
21807;DHT22;11065;50.786;7.840;2023-07-13T02:51:34;18.40;42.00
21807;DHT22;11065;50.786;7.840;2023-07-13T02:54:04;18.30;42.10
21807;DHT22;11065;50.786;7.840;2023-07-13T02:56:32;18.20;42.20
21807;DHT22;11065;50.786;7.840;2023-07-13T02:59:01;18.20;42.20
21807;DHT22;11065;50.786;7.840;2023-07-13T03:01:29;18.10;42.20
21807;DHT22;11065;50.786;7.840;2023-07-13T03:04:03;18.10;42.30
21807;DHT22;11065;50.786;7.840;2023-07-13T03:06:34;18.00;42.50
21807;DHT22;11065;50.786;7.840;2023-07-13T03:09:03;18.00;42.50
21807;DHT22;11065;50.786;7.840;2023-07-13T03:11:34;17.90;42.60
21807;DHT22;11065;50.786;7.840;2023-07-13T03:14:15;17.90;42.70
21807;DHT22;11065;50.786;7.840;2023-07-13T03:16:43;17.80;42.70
21807;DHT22;11065;50.786;7.840;2023-07-13T03:19:13;17.80;42.80
21807;DHT22;11065;50.786;7.840;2023-07-13T03:21:45;17.80;43.00
21807;DHT22;11065;50.786;7.840;2023-07-13T03:24:13;17.70;43.00
21807;DHT22;11065;50.786;7.840;2023-07-13T03:26:42;17.70;43.10
21807;DHT22;11065;50.786;7.840;2023-07-13T03:29:10;17.60;43.60
21807;DHT22;11065;50.786;7.840;2023-07-13T03:31:39;17.60;43.30
21807;DHT22;11065;50.786;7.840;2023-07-13T03:34:07;17.60;43.50
21807;DHT22;11065;50.786;7.840;2023-07-13T03:36:38;17.60;43.60
21807;DHT22;11065;50.786;7.840;2023-07-13T03:39:09;17.60;43.70
21807;DHT22;11065;50.786;7.840;2023-07-13T03:41:45;17.60;43.80
21807;DHT22;11065;50.786;7.840;2023-07-13T03:44:13;17.60;43.80
21807;DHT22;11065;50.786;7.840;2023-07-13T03:46:41;17.60;43.90
21807;DHT22;11065;50.786;7.840;2023-07-13T03:49:10;17.60;44.00
21807;DHT22;11065;50.786;7.840;2023-07-13T03:51:39;17.70;44.20
21807;DHT22;11065;50.786;7.840;2023-07-13T03:54:07;17.70;44.30
21807;DHT22;11065;50.786;7.840;2023-07-13T03:56:36;17.70;44.30
21807;DHT22;11065;50.786;7.840;2023-07-13T03:59:06;17.70;44.30
21807;DHT22;11065;50.786;7.840;2023-07-13T04:01:34;17.80;44.40
21807;DHT22;11065;50.786;7.840;2023-07-13T04:04:02;17.80;44.40
21807;DHT22;11065;50.786;7.840;2023-07-13T04:06:32;17.80;44.50
21807;DHT22;11065;50.786;7.840;2023-07-13T04:09:03;17.90;44.80
21807;DHT22;11065;50.786;7.840;2023-07-13T04:11:33;17.80;44.90
21807;DHT22;11065;50.786;7.840;2023-07-13T04:14:03;17.80;44.70
21807;DHT22;11065;50.786;7.840;2023-07-13T04:16:31;17.80;44.70
21807;DHT22;11065;50.786;7.840;2023-07-13T04:18:59;17.80;45.00
21807;DHT22;11065;50.786;7.840;2023-07-13T04:21:28;17.80;44.80
21807;DHT22;11065;50.786;7.840;2023-07-13T04:23:57;17.80;44.80
21807;DHT22;11065;50.786;7.840;2023-07-13T04:26:26;17.80;45.00
21807;DHT22;11065;50.786;7.840;2023-07-13T04:28:55;17.80;45.20
21807;DHT22;11065;50.786;7.840;2023-07-13T04:31:23;17.80;45.20
21807;DHT22;11065;50.786;7.840;2023-07-13T04:33:51;17.80;45.10
21807;DHT22;11065;50.786;7.840;2023-07-13T04:36:19;17.80;45.10
21807;DHT22;11065;50.786;7.840;2023-07-13T04:38:47;17.80;45.10
21807;DHT22;11065;50.786;7.840;2023-07-13T04:41:16;17.80;45.10
21807;DHT22;11065;50.786;7.840;2023-07-13T04:43:45;17.80;45.20
21807;DHT22;11065;50.786;7.840;2023-07-13T04:46:15;17.80;45.40
21807;DHT22;11065;50.786;7.840;2023-07-13T04:48:45;17.80;45.40
21807;DHT22;11065;50.786;7.840;2023-07-13T04:51:14;17.80;45.30
21807;DHT22;11065;50.786;7.840;2023-07-13T04:53:41;17.80;45.30
21807;DHT22;11065;50.786;7.840;2023-07-13T04:56:09;17.80;45.40
21807;DHT22;11065;50.786;7.840;2023-07-13T04:58:38;17.80;45.50
21807;DHT22;11065;50.786;7.840;2023-07-13T05:01:09;17.70;45.40
21807;DHT22;11065;50.786;7.840;2023-07-13T05:03:38;17.80;45.70
21807;DHT22;11065;50.786;7.840;2023-07-13T05:06:07;17.80;45.80
21807;DHT22;11065;50.786;7.840;2023-07-13T05:08:36;17.80;45.90
21807;DHT22;11065;50.786;7.840;2023-07-13T05:11:05;17.80;45.80
21807;DHT22;11065;50.786;7.840;2023-07-13T05:13:34;17.80;45.80
21807;DHT22;11065;50.786;7.840;2023-07-13T05:16:04;17.80;45.80
21807;DHT22;11065;50.786;7.840;2023-07-13T05:18:36;17.90;45.90
21807;DHT22;11065;50.786;7.840;2023-07-13T05:21:09;17.90;46.00
21807;DHT22;11065;50.786;7.840;2023-07-13T05:23:39;17.90;46.00
21807;DHT22;11065;50.786;7.840;2023-07-13T05:26:08;17.90;46.00
21807;DHT22;11065;50.786;7.840;2023-07-13T05:28:37;17.90;46.00
21807;DHT22;11065;50.786;7.840;2023-07-13T05:31:07;17.90;46.10
21807;DHT22;11065;50.786;7.840;2023-07-13T05:33:37;18.00;46.10
21807;DHT22;11065;50.786;7.840;2023-07-13T05:36:05;18.00;46.20
21807;DHT22;11065;50.786;7.840;2023-07-13T05:38:33;18.00;46.10
21807;DHT22;11065;50.786;7.840;2023-07-13T05:41:01;18.00;46.10
21807;DHT22;11065;50.786;7.840;2023-07-13T05:43:32;18.00;46.00
21807;DHT22;11065;50.786;7.840;2023-07-13T05:46:00;18.10;46.00
21807;DHT22;11065;50.786;7.840;2023-07-13T05:48:28;18.10;45.90
21807;DHT22;11065;50.786;7.840;2023-07-13T05:50:57;18.20;45.90
21807;DHT22;11065;50.786;7.840;2023-07-13T05:53:25;18.20;45.90
21807;DHT22;11065;50.786;7.840;2023-07-13T05:55:54;18.20;45.80
21807;DHT22;11065;50.786;7.840;2023-07-13T05:58:22;18.30;45.90
21807;DHT22;11065;50.786;7.840;2023-07-13T06:00:59;18.40;45.80
21807;DHT22;11065;50.786;7.840;2023-07-13T06:03:27;18.40;46.10
21807;DHT22;11065;50.786;7.840;2023-07-13T06:05:54;18.50;45.80
21807;DHT22;11065;50.786;7.840;2023-07-13T06:08:24;18.50;45.80
21807;DHT22;11065;50.786;7.840;2023-07-13T06:10:52;18.60;45.80
21807;DHT22;11065;50.786;7.840;2023-07-13T06:13:20;18.70;45.80
21807;DHT22;11065;50.786;7.840;2023-07-13T06:15:48;18.70;45.80
21807;DHT22;11065;50.786;7.840;2023-07-13T06:18:16;18.80;45.80
21807;DHT22;11065;50.786;7.840;2023-07-13T06:20:44;18.80;45.70
21807;DHT22;11065;50.786;7.840;2023-07-13T06:23:12;18.90;45.70
21807;DHT22;11065;50.786;7.840;2023-07-13T06:25:43;19.00;45.80
21807;DHT22;11065;50.786;7.840;2023-07-13T06:28:11;19.00;45.90
21807;DHT22;11065;50.786;7.840;2023-07-13T06:30:38;19.10;45.90
21807;DHT22;11065;50.786;7.840;2023-07-13T06:33:07;19.10;45.70
21807;DHT22;11065;50.786;7.840;2023-07-13T06:35:34;19.20;45.70
21807;DHT22;11065;50.786;7.840;2023-07-13T06:38:02;19.30;45.70
21807;DHT22;11065;50.786;7.840;2023-07-13T06:40:31;19.30;45.60
21807;DHT22;11065;50.786;7.840;2023-07-13T06:43:00;19.30;45.60
21807;DHT22;11065;50.786;7.840;2023-07-13T06:45:28;19.40;45.60
21807;DHT22;11065;50.786;7.840;2023-07-13T06:47:56;19.40;45.60
21807;DHT22;11065;50.786;7.840;2023-07-13T06:50:24;19.40;45.60
21807;DHT22;11065;50.786;7.840;2023-07-13T06:52:52;19.50;45.50
21807;DHT22;11065;50.786;7.840;2023-07-13T06:55:20;19.60;45.80
21807;DHT22;11065;50.786;7.840;2023-07-13T06:57:48;19.60;45.60
21807;DHT22;11065;50.786;7.840;2023-07-13T07:00:18;19.70;45.70
21807;DHT22;11065;50.786;7.840;2023-07-13T07:02:46;19.80;45.80
21807;DHT22;11065;50.786;7.840;2023-07-13T07:05:14;19.80;45.70
21807;DHT22;11065;50.786;7.840;2023-07-13T07:07:42;19.90;45.70
21807;DHT22;11065;50.786;7.840;2023-07-13T07:10:10;20.00;45.70
21807;DHT22;11065;50.786;7.840;2023-07-13T07:12:37;20.10;45.70
21807;DHT22;11065;50.786;7.840;2023-07-13T07:15:06;20.20;45.70
21807;DHT22;11065;50.786;7.840;2023-07-13T07:17:35;20.30;45.70
21807;DHT22;11065;50.786;7.840;2023-07-13T07:20:04;20.40;45.60
21807;DHT22;11065;50.786;7.840;2023-07-13T07:22:33;20.50;45.50
21807;DHT22;11065;50.786;7.840;2023-07-13T07:25:01;20.60;45.50
21807;DHT22;11065;50.786;7.840;2023-07-13T07:27:29;20.70;45.40
21807;DHT22;11065;50.786;7.840;2023-07-13T07:30:00;20.80;45.40
21807;DHT22;11065;50.786;7.840;2023-07-13T07:32:31;20.90;45.30
21807;DHT22;11065;50.786;7.840;2023-07-13T07:35:03;20.90;45.20
21807;DHT22;11065;50.786;7.840;2023-07-13T07:37:31;21.10;45.10
21807;DHT22;11065;50.786;7.840;2023-07-13T07:40:02;21.10;45.00
21807;DHT22;11065;50.786;7.840;2023-07-13T07:42:34;21.20;44.90
21807;DHT22;11065;50.786;7.840;2023-07-13T07:45:02;21.20;44.80
21807;DHT22;11065;50.786;7.840;2023-07-13T07:47:30;21.30;44.70
21807;DHT22;11065;50.786;7.840;2023-07-13T07:49:58;21.30;44.70
21807;DHT22;11065;50.786;7.840;2023-07-13T07:52:27;21.40;44.70
21807;DHT22;11065;50.786;7.840;2023-07-13T07:54:55;21.40;44.60
21807;DHT22;11065;50.786;7.840;2023-07-13T07:57:43;21.50;44.70
21807;DHT22;11065;50.786;7.840;2023-07-13T08:00:14;21.60;45.10
21807;DHT22;11065;50.786;7.840;2023-07-13T08:02:46;21.60;44.60
21807;DHT22;11065;50.786;7.840;2023-07-13T08:05:17;21.70;44.70
21807;DHT22;11065;50.786;7.840;2023-07-13T08:07:49;21.80;44.60
21807;DHT22;11065;50.786;7.840;2023-07-13T08:10:18;21.80;44.60
21807;DHT22;11065;50.786;7.840;2023-07-13T08:12:45;21.90;44.60
21807;DHT22;11065;50.786;7.840;2023-07-13T08:15:17;22.10;44.50
21807;DHT22;11065;50.786;7.840;2023-07-13T08:17:47;22.10;44.30
21807;DHT22;11065;50.786;7.840;2023-07-13T08:20:16;22.20;44.20
21807;DHT22;11065;50.786;7.840;2023-07-13T08:22:44;22.30;44.20
21807;DHT22;11065;50.786;7.840;2023-07-13T08:25:13;22.40;44.20
21807;DHT22;11065;50.786;7.840;2023-07-13T08:27:41;22.60;43.90
21807;DHT22;11065;50.786;7.840;2023-07-13T08:30:10;22.70;44.00
21807;DHT22;11065;50.786;7.840;2023-07-13T08:32:38;22.80;44.00
21807;DHT22;11065;50.786;7.840;2023-07-13T08:35:06;23.00;43.90
21807;DHT22;11065;50.786;7.840;2023-07-13T08:37:34;23.10;43.80
21807;DHT22;11065;50.786;7.840;2023-07-13T08:40:03;23.20;43.70
21807;DHT22;11065;50.786;7.840;2023-07-13T08:42:39;23.40;43.60
21807;DHT22;11065;50.786;7.840;2023-07-13T08:45:17;23.50;43.50
21807;DHT22;11065;50.786;7.840;2023-07-13T08:47:51;23.60;43.20
21807;DHT22;11065;50.786;7.840;2023-07-13T08:50:25;23.70;43.20
21807;DHT22;11065;50.786;7.840;2023-07-13T08:52:56;23.90;43.20
21807;DHT22;11065;50.786;7.840;2023-07-13T08:55:29;24.00;43.10
21807;DHT22;11065;50.786;7.840;2023-07-13T08:58:02;24.10;43.00
21807;DHT22;11065;50.786;7.840;2023-07-13T09:00:37;24.30;42.70
21807;DHT22;11065;50.786;7.840;2023-07-13T09:03:12;24.40;42.50
21807;DHT22;11065;50.786;7.840;2023-07-13T09:05:49;24.50;42.20
21807;DHT22;11065;50.786;7.840;2023-07-13T09:08:31;24.60;42.00
21807;DHT22;11065;50.786;7.840;2023-07-13T09:11:06;24.60;41.50
21807;DHT22;11065;50.786;7.840;2023-07-13T09:13:46;24.70;41.60
21807;DHT22;11065;50.786;7.840;2023-07-13T09:16:17;24.70;41.60
21807;DHT22;11065;50.786;7.840;2023-07-13T09:18:48;24.80;41.70
21807;DHT22;11065;50.786;7.840;2023-07-13T09:21:22;25.00;41.70
21807;DHT22;11065;50.786;7.840;2023-07-13T09:23:53;25.10;41.60
21807;DHT22;11065;50.786;7.840;2023-07-13T09:26:23;25.40;41.60
21807;DHT22;11065;50.786;7.840;2023-07-13T09:28:57;25.60;41.50
21807;DHT22;11065;50.786;7.840;2023-07-13T09:31:30;25.90;41.30
21807;DHT22;11065;50.786;7.840;2023-07-13T09:34:01;26.10;41.10
21807;DHT22;11065;50.786;7.840;2023-07-13T09:36:30;26.30;40.90
21807;DHT22;11065;50.786;7.840;2023-07-13T09:39:03;26.40;40.60
21807;DHT22;11065;50.786;7.840;2023-07-13T09:41:39;26.50;40.60
21807;DHT22;11065;50.786;7.840;2023-07-13T09:44:12;26.80;40.90
21807;DHT22;11065;50.786;7.840;2023-07-13T09:46:44;27.10;41.30
21807;DHT22;11065;50.786;7.840;2023-07-13T09:49:13;27.60;41.40
21807;DHT22;11065;50.786;7.840;2023-07-13T09:51:42;28.00;41.50
21807;DHT22;11065;50.786;7.840;2023-07-13T09:54:19;28.40;40.90
21807;DHT22;11065;50.786;7.840;2023-07-13T09:56:47;28.80;39.90
21807;DHT22;11065;50.786;7.840;2023-07-13T09:59:20;29.10;40.30
21807;DHT22;11065;50.786;7.840;2023-07-13T10:01:50;29.50;39.80
21807;DHT22;11065;50.786;7.840;2023-07-13T10:04:21;29.80;40.00
21807;DHT22;11065;50.786;7.840;2023-07-13T10:07:04;30.10;39.10
21807;DHT22;11065;50.786;7.840;2023-07-13T10:09:53;30.20;37.60
21807;DHT22;11065;50.786;7.840;2023-07-13T10:12:22;30.20;37.60
21807;DHT22;11065;50.786;7.840;2023-07-13T10:14:55;30.10;37.50
21807;DHT22;11065;50.786;7.840;2023-07-13T10:17:44;30.20;37.60
21807;DHT22;11065;50.786;7.840;2023-07-13T10:20:12;30.30;37.50
21807;DHT22;11065;50.786;7.840;2023-07-13T10:22:44;30.30;37.10
21807;DHT22;11065;50.786;7.840;2023-07-13T10:25:18;30.30;36.40
21807;DHT22;11065;50.786;7.840;2023-07-13T10:27:47;30.30;36.80
21807;DHT22;11065;50.786;7.840;2023-07-13T10:30:21;30.50;37.00
21807;DHT22;11065;50.786;7.840;2023-07-13T10:32:52;30.70;37.10
21807;DHT22;11065;50.786;7.840;2023-07-13T10:35:21;30.90;37.10
21807;DHT22;11065;50.786;7.840;2023-07-13T10:37:53;31.10;36.60
21807;DHT22;11065;50.786;7.840;2023-07-13T10:40:28;31.10;35.90
21807;DHT22;11065;50.786;7.840;2023-07-13T10:42:59;31.20;35.70
21807;DHT22;11065;50.786;7.840;2023-07-13T10:45:33;31.20;35.90
21807;DHT22;11065;50.786;7.840;2023-07-13T10:48:04;31.20;35.40
21807;DHT22;11065;50.786;7.840;2023-07-13T10:50:33;31.30;35.70
21807;DHT22;11065;50.786;7.840;2023-07-13T10:53:03;31.60;35.00
21807;DHT22;11065;50.786;7.840;2023-07-13T10:55:58;31.90;35.50
21807;DHT22;11065;50.786;7.840;2023-07-13T10:58:33;32.20;35.30
21807;DHT22;11065;50.786;7.840;2023-07-13T11:01:12;32.50;35.30
21807;DHT22;11065;50.786;7.840;2023-07-13T11:03:49;32.70;34.60
21807;DHT22;11065;50.786;7.840;2023-07-13T11:06:31;32.70;33.80
21807;DHT22;11065;50.786;7.840;2023-07-13T11:09:18;32.70;33.20
21807;DHT22;11065;50.786;7.840;2023-07-13T11:11:46;32.40;33.00
21807;DHT22;11065;50.786;7.840;2023-07-13T11:14:28;32.10;33.30
21807;DHT22;11065;50.786;7.840;2023-07-13T11:16:57;31.90;33.20
21807;DHT22;11065;50.786;7.840;2023-07-13T11:19:38;31.80;33.70
21807;DHT22;11065;50.786;7.840;2023-07-13T11:22:13;31.80;33.50
21807;DHT22;11065;50.786;7.840;2023-07-13T11:24:50;31.70;33.70
21807;DHT22;11065;50.786;7.840;2023-07-13T11:27:28;31.70;33.40
21807;DHT22;11065;50.786;7.840;2023-07-13T11:30:25;31.70;33.30
21807;DHT22;11065;50.786;7.840;2023-07-13T11:33:08;31.70;33.00
21807;DHT22;11065;50.786;7.840;2023-07-13T11:35:51;31.60;32.70
21807;DHT22;11065;50.786;7.840;2023-07-13T11:38:22;31.40;32.50
21807;DHT22;11065;50.786;7.840;2023-07-13T11:40:54;31.20;32.60
21807;DHT22;11065;50.786;7.840;2023-07-13T11:43:23;30.90;32.30
21807;DHT22;11065;50.786;7.840;2023-07-13T11:45:51;30.60;32.30
21807;DHT22;11065;50.786;7.840;2023-07-13T11:48:24;30.30;32.00
21807;DHT22;11065;50.786;7.840;2023-07-13T11:50:58;30.00;32.20
21807;DHT22;11065;50.786;7.840;2023-07-13T11:53:29;29.70;32.30
21807;DHT22;11065;50.786;7.840;2023-07-13T11:55:58;29.50;32.60
21807;DHT22;11065;50.786;7.840;2023-07-13T11:58:27;29.50;33.30
21807;DHT22;11065;50.786;7.840;2023-07-13T12:00:58;29.60;33.80
21807;DHT22;11065;50.786;7.840;2023-07-13T12:03:29;29.90;34.10
21807;DHT22;11065;50.786;7.840;2023-07-13T12:05:59;30.00;33.30
21807;DHT22;11065;50.786;7.840;2023-07-13T12:08:28;30.00;33.10
21807;DHT22;11065;50.786;7.840;2023-07-13T12:10:59;30.00;33.00
21807;DHT22;11065;50.786;7.840;2023-07-13T12:13:28;29.80;32.70
21807;DHT22;11065;50.786;7.840;2023-07-13T12:15:57;29.70;32.80
21807;DHT22;11065;50.786;7.840;2023-07-13T12:18:30;29.50;32.90
21807;DHT22;11065;50.786;7.840;2023-07-13T12:21:00;29.40;33.00
21807;DHT22;11065;50.786;7.840;2023-07-13T12:23:31;29.50;33.50
21807;DHT22;11065;50.786;7.840;2023-07-13T12:26:02;29.60;33.50
21807;DHT22;11065;50.786;7.840;2023-07-13T12:28:33;29.70;33.40
21807;DHT22;11065;50.786;7.840;2023-07-13T12:31:03;29.70;33.20
21807;DHT22;11065;50.786;7.840;2023-07-13T12:33:33;29.70;33.00
21807;DHT22;11065;50.786;7.840;2023-07-13T12:36:03;29.50;32.80
21807;DHT22;11065;50.786;7.840;2023-07-13T12:38:32;29.40;33.00
21807;DHT22;11065;50.786;7.840;2023-07-13T12:41:01;29.40;33.20
21807;DHT22;11065;50.786;7.840;2023-07-13T12:43:33;29.30;33.20
21807;DHT22;11065;50.786;7.840;2023-07-13T12:46:05;29.20;33.10
21807;DHT22;11065;50.786;7.840;2023-07-13T12:48:47;29.10;33.10
21807;DHT22;11065;50.786;7.840;2023-07-13T12:51:30;29.10;33.00
21807;DHT22;11065;50.786;7.840;2023-07-13T12:54:06;29.00;33.20
21807;DHT22;11065;50.786;7.840;2023-07-13T12:56:38;29.00;33.20
21807;DHT22;11065;50.786;7.840;2023-07-13T12:59:15;29.10;33.40
21807;DHT22;11065;50.786;7.840;2023-07-13T13:01:44;29.10;33.20
21807;DHT22;11065;50.786;7.840;2023-07-13T13:04:15;29.20;33.00
21807;DHT22;11065;50.786;7.840;2023-07-13T13:06:49;29.20;32.90
21807;DHT22;11065;50.786;7.840;2023-07-13T13:09:17;29.20;32.90
21807;DHT22;11065;50.786;7.840;2023-07-13T13:11:46;29.10;32.80
21807;DHT22;11065;50.786;7.840;2023-07-13T13:14:14;29.10;32.70
21807;DHT22;11065;50.786;7.840;2023-07-13T13:16:48;29.00;32.70
21807;DHT22;11065;50.786;7.840;2023-07-13T13:19:20;28.90;32.80
21807;DHT22;11065;50.786;7.840;2023-07-13T13:21:49;28.90;32.80
21807;DHT22;11065;50.786;7.840;2023-07-13T13:24:22;28.90;32.90
21807;DHT22;11065;50.786;7.840;2023-07-13T13:26:51;28.90;32.90
21807;DHT22;11065;50.786;7.840;2023-07-13T13:29:21;28.80;32.70
21807;DHT22;11065;50.786;7.840;2023-07-13T13:31:51;28.80;32.70
21807;DHT22;11065;50.786;7.840;2023-07-13T13:34:22;28.80;32.60
21807;DHT22;11065;50.786;7.840;2023-07-13T13:36:51;28.70;32.20
21807;DHT22;11065;50.786;7.840;2023-07-13T13:39:29;28.70;32.00
21807;DHT22;11065;50.786;7.840;2023-07-13T13:41:59;28.70;32.20
21807;DHT22;11065;50.786;7.840;2023-07-13T13:44:27;28.80;32.40
21807;DHT22;11065;50.786;7.840;2023-07-13T13:46:55;28.80;32.30
21807;DHT22;11065;50.786;7.840;2023-07-13T13:49:27;28.80;32.30
21807;DHT22;11065;50.786;7.840;2023-07-13T13:51:56;28.90;32.00
21807;DHT22;11065;50.786;7.840;2023-07-13T13:54:24;28.80;31.70
21807;DHT22;11065;50.786;7.840;2023-07-13T13:56:53;28.80;31.80
21807;DHT22;11065;50.786;7.840;2023-07-13T13:59:21;28.70;31.20
21807;DHT22;11065;50.786;7.840;2023-07-13T14:01:49;28.60;31.70
21807;DHT22;11065;50.786;7.840;2023-07-13T14:04:19;28.40;31.70
21807;DHT22;11065;50.786;7.840;2023-07-13T14:06:49;28.40;31.80
21807;DHT22;11065;50.786;7.840;2023-07-13T14:09:19;28.30;31.90
21807;DHT22;11065;50.786;7.840;2023-07-13T14:11:48;28.20;31.90
21807;DHT22;11065;50.786;7.840;2023-07-13T14:14:21;28.20;32.10
21807;DHT22;11065;50.786;7.840;2023-07-13T14:16:51;28.20;32.20
21807;DHT22;11065;50.786;7.840;2023-07-13T14:19:21;28.20;32.30
21807;DHT22;11065;50.786;7.840;2023-07-13T14:21:50;28.20;32.50
21807;DHT22;11065;50.786;7.840;2023-07-13T14:24:21;28.30;32.60
21807;DHT22;11065;50.786;7.840;2023-07-13T14:26:49;28.40;32.80
21807;DHT22;11065;50.786;7.840;2023-07-13T14:29:18;28.50;32.90
21807;DHT22;11065;50.786;7.840;2023-07-13T14:31:51;28.60;32.80
21807;DHT22;11065;50.786;7.840;2023-07-13T14:34:19;28.70;32.80
21807;DHT22;11065;50.786;7.840;2023-07-13T14:36:50;28.80;32.80
21807;DHT22;11065;50.786;7.840;2023-07-13T14:39:19;28.90;32.90
21807;DHT22;11065;50.786;7.840;2023-07-13T14:41:50;29.00;32.90
21807;DHT22;11065;50.786;7.840;2023-07-13T14:44:21;29.10;32.80
21807;DHT22;11065;50.786;7.840;2023-07-13T14:46:51;29.10;32.40
21807;DHT22;11065;50.786;7.840;2023-07-13T14:49:24;29.20;32.30
21807;DHT22;11065;50.786;7.840;2023-07-13T14:51:54;29.20;32.10
21807;DHT22;11065;50.786;7.840;2023-07-13T14:54:24;29.20;32.40
21807;DHT22;11065;50.786;7.840;2023-07-13T14:56:52;29.30;32.50
21807;DHT22;11065;50.786;7.840;2023-07-13T14:59:20;29.40;32.60
21807;DHT22;11065;50.786;7.840;2023-07-13T15:01:49;29.50;32.50
21807;DHT22;11065;50.786;7.840;2023-07-13T15:04:18;29.60;32.40
21807;DHT22;11065;50.786;7.840;2023-07-13T15:06:58;29.80;32.30
21807;DHT22;11065;50.786;7.840;2023-07-13T15:09:27;29.90;32.00
21807;DHT22;11065;50.786;7.840;2023-07-13T15:11:56;30.00;32.00
21807;DHT22;11065;50.786;7.840;2023-07-13T15:14:24;30.00;31.80
21807;DHT22;11065;50.786;7.840;2023-07-13T15:16:54;30.00;31.70
21807;DHT22;11065;50.786;7.840;2023-07-13T15:19:23;30.00;32.10
21807;DHT22;11065;50.786;7.840;2023-07-13T15:21:52;30.00;31.60
21807;DHT22;11065;50.786;7.840;2023-07-13T15:24:22;30.10;31.50
21807;DHT22;11065;50.786;7.840;2023-07-13T15:26:50;30.10;31.50
21807;DHT22;11065;50.786;7.840;2023-07-13T15:29:18;30.00;31.40
21807;DHT22;11065;50.786;7.840;2023-07-13T15:31:46;30.00;31.30
21807;DHT22;11065;50.786;7.840;2023-07-13T15:34:20;29.90;31.30
21807;DHT22;11065;50.786;7.840;2023-07-13T15:36:50;29.90;31.20
21807;DHT22;11065;50.786;7.840;2023-07-13T15:39:19;29.90;31.40
21807;DHT22;11065;50.786;7.840;2023-07-13T15:41:48;29.90;31.50
21807;DHT22;11065;50.786;7.840;2023-07-13T15:44:23;29.90;31.30
21807;DHT22;11065;50.786;7.840;2023-07-13T15:46:52;29.90;31.00
21807;DHT22;11065;50.786;7.840;2023-07-13T15:49:20;29.80;31.10
21807;DHT22;11065;50.786;7.840;2023-07-13T15:51:48;29.90;31.00